createdAt,value
2018-01-18T00:00:04.923Z,967.17
2018-01-18T00:01:05.333Z,967.23
2018-01-18T00:02:05.335Z,967.25
2018-01-18T00:03:05.305Z,967.03
2018-01-18T00:04:05.280Z,967.20
2018-01-18T00:05:05.718Z,967.14
2018-01-18T00:06:05.766Z,967.14
2018-01-18T00:07:05.815Z,967.25
2018-01-18T00:08:05.232Z,967.22
2018-01-18T00:09:06.016Z,967.20
2018-01-18T00:10:06.109Z,967.08
2018-01-18T00:11:05.733Z,967.11
2018-01-18T00:12:05.147Z,967.14
2018-01-18T00:13:05.714Z,967.09
2018-01-18T00:14:04.997Z,967.22
2018-01-18T00:15:05.247Z,967.22
2018-01-18T00:16:04.993Z,967.11
2018-01-18T00:17:05.117Z,967.16
2018-01-18T00:18:05.910Z,967.05
2018-01-18T00:19:05.148Z,967.05
2018-01-18T00:20:05.300Z,967.16
2018-01-18T00:21:05.257Z,967.14
2018-01-18T00:22:05.143Z,967.11
2018-01-18T00:23:05.614Z,967.22
2018-01-18T00:24:05.250Z,967.22
2018-01-18T00:25:05.211Z,967.33
2018-01-18T00:26:05.839Z,967.27
2018-01-18T00:27:05.062Z,967.19
2018-01-18T00:28:05.081Z,967.16
2018-01-18T00:29:05.375Z,967.21
2018-01-18T00:30:05.776Z,967.10
2018-01-18T00:31:05.336Z,967.27
2018-01-18T00:32:05.636Z,967.10
2018-01-18T00:33:05.600Z,967.18
2018-01-18T00:34:05.680Z,967.07
2018-01-18T00:35:05.366Z,967.13
2018-01-18T00:36:05.861Z,967.15
2018-01-18T00:37:05.206Z,967.18
2018-01-18T00:38:05.242Z,967.12
2018-01-18T00:39:05.810Z,967.21
2018-01-18T00:40:05.915Z,967.26
2018-01-18T00:41:05.732Z,967.26
2018-01-18T00:42:05.175Z,967.23
2018-01-18T00:43:05.605Z,967.45
2018-01-18T00:44:05.732Z,967.20
2018-01-18T00:45:05.185Z,967.17
2018-01-18T00:46:05.762Z,967.28
2018-01-18T00:47:07.026Z,967.20
2018-01-18T00:48:05.189Z,967.17
2018-01-18T00:49:05.712Z,967.09
2018-01-18T00:50:05.870Z,967.06
2018-01-18T00:51:05.523Z,967.11
2018-01-18T00:52:05.764Z,967.08
2018-01-18T00:53:05.854Z,967.20
2018-01-18T00:54:05.374Z,967.14
2018-01-18T00:55:05.949Z,967.08
2018-01-18T00:56:05.321Z,967.19
2018-01-18T00:57:05.214Z,967.02
2018-01-18T00:58:05.151Z,967.13
2018-01-18T00:59:05.006Z,967.13
2018-01-18T01:00:05.437Z,967.10
2018-01-18T01:01:05.046Z,967.16
2018-01-18T01:02:06.719Z,967.13
2018-01-18T01:03:05.473Z,967.16
2018-01-18T01:04:06.009Z,967.10
2018-01-18T01:05:05.358Z,966.97
2018-01-18T01:06:05.353Z,967.07
2018-01-18T01:07:10.231Z,967.07
2018-01-18T01:08:05.142Z,967.00
2018-01-18T01:09:05.144Z,967.00
2018-01-18T01:10:05.933Z,966.97
2018-01-18T01:11:05.647Z,966.97
2018-01-18T01:12:05.755Z,966.83
2018-01-18T01:13:05.535Z,966.97
2018-01-18T01:14:05.114Z,967.04
2018-01-18T01:15:05.725Z,966.94
2018-01-18T01:16:05.455Z,966.91
2018-01-18T01:17:10.286Z,966.85
2018-01-18T01:18:05.237Z,966.88
2018-01-18T01:19:04.893Z,966.91
2018-01-18T01:20:05.660Z,966.88
2018-01-18T01:21:05.116Z,967.01
2018-01-18T01:22:05.841Z,967.01
2018-01-18T01:23:05.403Z,966.91
2018-01-18T01:24:05.077Z,967.09
2018-01-18T01:25:05.568Z,966.99
2018-01-18T01:26:05.786Z,967.06
2018-01-18T01:27:05.400Z,967.06
2018-01-18T01:28:05.040Z,966.93
2018-01-18T01:29:05.097Z,966.99
2018-01-18T01:30:05.720Z,967.06
2018-01-18T01:31:05.115Z,967.01
2018-01-18T01:32:05.617Z,967.06
2018-01-18T01:33:05.625Z,967.12
2018-01-18T01:34:05.977Z,967.12
2018-01-18T01:35:05.983Z,967.04
2018-01-18T01:36:05.534Z,966.94
2018-01-18T01:37:05.717Z,967.04
2018-01-18T01:38:05.765Z,966.91
2018-01-18T01:39:05.856Z,967.12
2018-01-18T01:40:05.809Z,966.85
2018-01-18T01:41:05.014Z,966.96
2018-01-18T01:42:05.721Z,967.12
2018-01-18T01:43:05.508Z,967.07
2018-01-18T01:44:05.659Z,967.12
2018-01-18T01:45:05.225Z,967.12
2018-01-18T01:46:10.455Z,966.96
2018-01-18T01:47:05.989Z,967.01
2018-01-18T01:48:05.048Z,966.91
2018-01-18T01:49:05.848Z,966.96
2018-01-18T01:50:05.611Z,967.01
2018-01-18T01:51:05.914Z,967.09
2018-01-18T01:52:05.635Z,967.07
2018-01-18T01:53:05.791Z,967.18
2018-01-18T01:54:05.475Z,967.07
2018-01-18T01:55:05.268Z,967.07
2018-01-18T01:56:05.846Z,967.01
2018-01-18T01:57:05.898Z,966.94
2018-01-18T01:58:05.908Z,967.01
2018-01-18T01:59:05.872Z,967.01
2018-01-18T02:00:05.040Z,967.01
2018-01-18T02:01:05.274Z,966.94
2018-01-18T02:02:05.064Z,966.99
2018-01-18T02:03:05.489Z,967.01
2018-01-18T02:04:05.413Z,966.91
2018-01-18T02:05:05.691Z,966.94
2018-01-18T02:06:05.020Z,966.94
2018-01-18T02:07:05.264Z,966.91
2018-01-18T02:08:05.916Z,966.91
2018-01-18T02:09:05.140Z,967.01
2018-01-18T02:10:05.781Z,966.94
2018-01-18T02:11:05.658Z,967.01
2018-01-18T02:12:05.354Z,966.97
2018-01-18T02:13:05.455Z,967.07
2018-01-18T02:14:05.517Z,967.01
2018-01-18T02:15:05.439Z,966.88
2018-01-18T02:16:05.858Z,966.91
2018-01-18T02:17:05.899Z,966.99
2018-01-18T02:18:05.978Z,966.94
2018-01-18T02:19:05.514Z,967.01
2018-01-18T02:20:05.514Z,967.09
2018-01-18T02:21:05.408Z,966.96
2018-01-18T02:22:05.427Z,967.07
2018-01-18T02:23:05.616Z,967.01
2018-01-18T02:24:05.747Z,966.91
2018-01-18T02:25:05.817Z,966.85
2018-01-18T02:26:05.021Z,966.83
2018-01-18T02:27:05.793Z,966.94
2018-01-18T02:28:05.364Z,966.88
2018-01-18T02:29:05.748Z,966.85
2018-01-18T02:30:05.723Z,966.85
2018-01-18T02:31:05.458Z,966.74
2018-01-18T02:32:05.174Z,966.80
2018-01-18T02:33:05.683Z,966.69
2018-01-18T02:34:05.557Z,966.55
2018-01-18T02:35:05.235Z,966.61
2018-01-18T02:36:05.898Z,966.63
2018-01-18T02:37:05.165Z,966.58
2018-01-18T02:38:05.816Z,966.55
2018-01-18T02:39:05.105Z,966.58
2018-01-18T02:40:05.516Z,966.47
2018-01-18T02:41:05.629Z,966.72
2018-01-18T02:42:05.794Z,966.50
2018-01-18T02:43:05.123Z,966.52
2018-01-18T02:44:05.443Z,966.52
2018-01-18T02:45:05.352Z,966.50
2018-01-18T02:46:05.072Z,966.58
2018-01-18T02:47:05.711Z,966.47
2018-01-18T02:48:05.198Z,966.47
2018-01-18T02:49:05.689Z,966.52
2018-01-18T02:50:05.782Z,966.41
2018-01-18T02:51:05.892Z,966.47
2018-01-18T02:52:05.294Z,966.47
2018-01-18T02:53:05.821Z,966.39
2018-01-18T02:54:05.225Z,966.41
2018-01-18T02:55:05.842Z,966.44
2018-01-18T02:56:05.643Z,966.41
2018-01-18T02:57:05.269Z,966.36
2018-01-18T02:58:05.292Z,966.44
2018-01-18T02:59:04.914Z,966.30
2018-01-18T03:00:10.495Z,966.25
2018-01-18T03:01:05.596Z,966.41
2018-01-18T03:02:05.242Z,966.38
2018-01-18T03:03:05.228Z,966.36
2018-01-18T03:04:10.943Z,966.27
2018-01-18T03:05:05.874Z,966.33
2018-01-18T03:06:05.033Z,966.13
2018-01-18T03:07:05.496Z,966.16
2018-01-18T03:08:05.526Z,966.16
2018-01-18T03:09:05.313Z,966.16
2018-01-18T03:10:10.572Z,966.10
2018-01-18T03:11:05.526Z,966.10
2018-01-18T03:12:05.280Z,966.16
2018-01-18T03:13:05.311Z,966.16
2018-01-18T03:14:05.619Z,966.10
2018-01-18T03:15:05.389Z,966.18
2018-01-18T03:16:05.342Z,966.27
2018-01-18T03:17:05.467Z,966.30
2018-01-18T03:18:04.931Z,966.10
2018-01-18T03:19:05.629Z,966.21
2018-01-18T03:20:05.793Z,966.13
2018-01-18T03:21:05.956Z,966.13
2018-01-18T03:22:05.324Z,966.18
2018-01-18T03:23:06.124Z,966.07
2018-01-18T03:24:05.116Z,966.15
2018-01-18T03:25:05.598Z,966.24
2018-01-18T03:26:05.329Z,966.12
2018-01-18T03:27:05.510Z,966.04
2018-01-18T03:28:05.048Z,966.15
2018-01-18T03:29:05.656Z,966.04
2018-01-18T03:30:05.896Z,965.96
2018-01-18T03:31:05.296Z,966.01
2018-01-18T03:32:05.808Z,965.96
2018-01-18T03:33:05.553Z,965.84
2018-01-18T03:34:05.335Z,965.87
2018-01-18T03:35:05.638Z,965.70
2018-01-18T03:36:05.044Z,965.82
2018-01-18T03:37:05.595Z,965.79
2018-01-18T03:38:05.361Z,965.60
2018-01-18T03:39:05.410Z,965.81
2018-01-18T03:40:05.486Z,965.90
2018-01-18T03:41:05.631Z,965.90
2018-01-18T03:42:05.112Z,965.81
2018-01-18T03:43:05.314Z,965.76
2018-01-18T03:44:04.950Z,965.93
2018-01-18T03:45:05.571Z,965.84
2018-01-18T03:46:05.521Z,965.73
2018-01-18T03:47:05.765Z,965.73
2018-01-18T03:48:05.882Z,965.87
2018-01-18T03:49:05.659Z,965.87
2018-01-18T03:50:05.620Z,965.76
2018-01-18T03:51:05.646Z,965.67
2018-01-18T03:52:05.495Z,965.90
2018-01-18T03:53:05.321Z,965.73
2018-01-18T03:54:05.013Z,965.76
2018-01-18T03:55:05.089Z,965.68
2018-01-18T03:56:05.664Z,965.65
2018-01-18T03:57:05.802Z,965.65
2018-01-18T03:58:05.973Z,965.73
2018-01-18T03:59:05.748Z,965.62
2018-01-18T04:00:06.061Z,965.62
2018-01-18T04:01:05.280Z,965.79
2018-01-18T04:02:05.417Z,965.68
2018-01-18T04:03:05.518Z,965.62
2018-01-18T04:04:05.291Z,965.55
2018-01-18T04:05:05.203Z,965.52
2018-01-18T04:06:05.952Z,965.62
2018-01-18T04:07:05.822Z,965.73
2018-01-18T04:08:05.933Z,965.55
2018-01-18T04:09:05.286Z,965.60
2018-01-18T04:10:05.144Z,965.52
2018-01-18T04:11:05.578Z,965.38
2018-01-18T04:12:05.625Z,965.41
2018-01-18T04:13:05.549Z,965.41
2018-01-18T04:14:05.427Z,965.21
2018-01-18T04:15:05.096Z,965.26
2018-01-18T04:16:05.415Z,965.40
2018-01-18T04:17:05.349Z,965.21
2018-01-18T04:18:04.909Z,965.07
2018-01-18T04:19:05.968Z,965.12
2018-01-18T04:20:05.469Z,965.07
2018-01-18T04:21:05.472Z,965.10
2018-01-18T04:22:05.960Z,965.15
2018-01-18T04:23:05.666Z,965.12
2018-01-18T04:24:06.008Z,964.93
2018-01-18T04:25:05.052Z,964.90
2018-01-18T04:26:05.021Z,965.10
2018-01-18T04:27:05.000Z,964.93
2018-01-18T04:28:10.072Z,965.01
2018-01-18T04:29:06.012Z,964.87
2018-01-18T04:30:05.766Z,964.85
2018-01-18T04:31:05.421Z,965.04
2018-01-18T04:32:05.511Z,964.93
2018-01-18T04:33:05.965Z,964.98
2018-01-18T04:34:05.164Z,964.90
2018-01-18T04:35:05.905Z,964.90
2018-01-18T04:36:06.080Z,964.71
2018-01-18T04:37:05.119Z,964.77
2018-01-18T04:38:05.262Z,964.68
2018-01-18T04:39:05.695Z,964.71
2018-01-18T04:40:05.005Z,964.71
2018-01-18T04:41:05.646Z,964.87
2018-01-18T04:42:05.578Z,964.60
2018-01-18T04:43:05.840Z,964.49
2018-01-18T04:44:05.449Z,964.60
2018-01-18T04:45:05.045Z,964.71
2018-01-18T04:46:05.752Z,964.57
2018-01-18T04:47:05.313Z,964.63
2018-01-18T04:48:05.484Z,964.57
2018-01-18T04:49:05.036Z,964.57
2018-01-18T04:50:05.870Z,964.51
2018-01-18T04:51:05.212Z,964.51
2018-01-18T04:52:05.009Z,964.43
2018-01-18T04:53:05.353Z,964.43
2018-01-18T04:54:05.252Z,964.37
2018-01-18T04:55:05.215Z,964.46
2018-01-18T04:56:05.207Z,964.43
2018-01-18T04:57:05.579Z,964.40
2018-01-18T04:58:05.595Z,964.26
2018-01-18T04:59:05.970Z,964.31
2018-01-18T05:00:05.593Z,964.31
2018-01-18T05:01:05.883Z,964.25
2018-01-18T05:02:05.093Z,964.23
2018-01-18T05:03:05.548Z,964.31
2018-01-18T05:04:05.867Z,964.17
2018-01-18T05:05:06.209Z,964.25
2018-01-18T05:06:05.541Z,964.11
2018-01-18T05:07:05.684Z,964.00
2018-01-18T05:08:05.861Z,964.11
2018-01-18T05:09:05.516Z,964.06
2018-01-18T05:10:05.157Z,964.20
2018-01-18T05:11:05.828Z,964.11
2018-01-18T05:12:04.966Z,963.92
2018-01-18T05:13:05.795Z,963.97
2018-01-18T05:14:05.803Z,964.06
2018-01-18T05:15:05.781Z,964.17
2018-01-18T05:16:05.172Z,963.94
2018-01-18T05:17:05.836Z,963.76
2018-01-18T05:18:05.820Z,964.00
2018-01-18T05:19:04.953Z,963.94
2018-01-18T05:20:05.771Z,963.70
2018-01-18T05:21:05.486Z,963.59
2018-01-18T05:22:05.536Z,963.76
2018-01-18T05:23:05.156Z,963.62
2018-01-18T05:24:05.769Z,963.70
2018-01-18T05:25:06.430Z,963.73
2018-01-18T05:26:05.486Z,963.56
2018-01-18T05:27:04.983Z,963.67
2018-01-18T05:28:04.997Z,963.65
2018-01-18T05:29:05.084Z,963.53
2018-01-18T05:30:05.531Z,963.59
2018-01-18T05:31:05.439Z,963.42
2018-01-18T05:32:05.952Z,963.39
2018-01-18T05:33:05.578Z,963.31
2018-01-18T05:34:05.355Z,963.31
2018-01-18T05:35:05.238Z,963.17
2018-01-18T05:36:05.725Z,963.31
2018-01-18T05:37:05.791Z,963.31
2018-01-18T05:38:05.413Z,963.31
2018-01-18T05:39:05.433Z,963.17
2018-01-18T05:40:05.284Z,963.37
2018-01-18T05:41:05.843Z,963.20
2018-01-18T05:42:05.155Z,963.26
2018-01-18T05:43:05.319Z,963.31
2018-01-18T05:44:05.854Z,963.09
2018-01-18T05:45:05.770Z,963.15
2018-01-18T05:46:05.912Z,962.92
2018-01-18T05:47:05.682Z,963.14
2018-01-18T05:48:05.838Z,963.12
2018-01-18T05:49:05.997Z,962.89
2018-01-18T05:50:05.110Z,962.86
2018-01-18T05:51:05.280Z,962.95
2018-01-18T05:52:05.383Z,963.03
2018-01-18T05:53:05.847Z,962.80
2018-01-18T05:54:05.038Z,962.67
2018-01-18T05:55:05.560Z,962.64
2018-01-18T05:56:05.308Z,962.55
2018-01-18T05:57:05.259Z,962.48
2018-01-18T05:58:05.869Z,962.48
2018-01-18T05:59:06.114Z,962.45
2018-01-18T06:00:05.382Z,962.42
2018-01-18T06:01:05.288Z,962.48
2018-01-18T06:02:05.439Z,962.39
2018-01-18T06:03:05.055Z,962.45
2018-01-18T06:04:05.721Z,962.15
2018-01-18T06:05:05.451Z,962.18
2018-01-18T06:06:05.330Z,962.15
2018-01-18T06:07:10.827Z,962.15
2018-01-18T06:08:05.828Z,962.01
2018-01-18T06:09:05.940Z,962.09
2018-01-18T06:10:05.717Z,961.92
2018-01-18T06:11:05.724Z,961.95
2018-01-18T06:12:10.376Z,961.90
2018-01-18T06:13:05.179Z,961.81
2018-01-18T06:14:05.071Z,961.87
2018-01-18T06:15:05.068Z,961.79
2018-01-18T06:16:05.540Z,961.73
2018-01-18T06:17:05.549Z,961.87
2018-01-18T06:18:05.598Z,961.76
2018-01-18T06:19:05.299Z,961.53
2018-01-18T06:20:05.597Z,961.48
2018-01-18T06:21:05.371Z,961.45
2018-01-18T06:22:05.557Z,961.50
2018-01-18T06:23:05.178Z,961.50
2018-01-18T06:24:05.570Z,961.50
2018-01-18T06:25:04.946Z,961.56
2018-01-18T06:26:05.082Z,961.45
2018-01-18T06:27:05.113Z,961.20
2018-01-18T06:28:05.258Z,961.22
2018-01-18T06:29:05.154Z,961.25
2018-01-18T06:30:05.389Z,961.42
2018-01-18T06:31:05.413Z,961.17
2018-01-18T06:32:05.213Z,961.20
2018-01-18T06:33:05.826Z,961.17
2018-01-18T06:34:05.318Z,961.23
2018-01-18T06:35:05.918Z,961.09
2018-01-18T06:36:05.914Z,961.17
2018-01-18T06:37:05.345Z,961.25
2018-01-18T06:38:05.781Z,961.00
2018-01-18T06:39:05.191Z,961.03
2018-01-18T06:40:05.353Z,961.19
2018-01-18T06:41:05.819Z,960.94
2018-01-18T06:42:05.054Z,961.00
2018-01-18T06:43:05.947Z,960.97
2018-01-18T06:44:05.219Z,960.86
2018-01-18T06:45:05.630Z,960.97
2018-01-18T06:46:06.108Z,960.89
2018-01-18T06:47:05.715Z,960.70
2018-01-18T06:48:05.802Z,960.73
2018-01-18T06:49:05.556Z,960.80
2018-01-18T06:50:05.393Z,960.67
2018-01-18T06:51:05.991Z,960.62
2018-01-18T06:52:05.416Z,960.67
2018-01-18T06:53:05.764Z,960.73
2018-01-18T06:54:05.432Z,960.53
2018-01-18T06:55:05.174Z,960.56
2018-01-18T06:56:05.327Z,960.45
2018-01-18T06:57:05.972Z,960.50
2018-01-18T06:58:05.566Z,960.48
2018-01-18T06:59:04.901Z,960.45
2018-01-18T07:00:04.997Z,960.42
2018-01-18T07:01:05.961Z,960.36
2018-01-18T07:02:05.923Z,960.28
2018-01-18T07:03:06.102Z,960.39
2018-01-18T07:04:05.238Z,960.33
2018-01-18T07:05:05.498Z,960.39
2018-01-18T07:06:05.510Z,960.39
2018-01-18T07:07:05.703Z,960.28
2018-01-18T07:08:05.819Z,960.22
2018-01-18T07:09:05.980Z,960.05
2018-01-18T07:10:05.773Z,960.14
2018-01-18T07:11:05.275Z,960.05
2018-01-18T07:12:05.199Z,960.02
2018-01-18T07:13:05.113Z,959.94
2018-01-18T07:14:05.322Z,959.99
2018-01-18T07:15:05.285Z,959.88
2018-01-18T07:16:05.432Z,959.82
2018-01-18T07:17:05.955Z,959.96
2018-01-18T07:18:05.729Z,959.80
2018-01-18T07:19:05.720Z,959.85
2018-01-18T07:20:05.363Z,959.74
2018-01-18T07:21:05.271Z,959.58
2018-01-18T07:22:06.166Z,959.55
2018-01-18T07:23:05.070Z,959.52
2018-01-18T07:24:05.488Z,959.38
2018-01-18T07:25:05.378Z,959.47
2018-01-18T07:26:05.848Z,959.50
2018-01-18T07:27:05.741Z,959.33
2018-01-18T07:28:05.250Z,959.27
2018-01-18T07:29:06.075Z,959.19
2018-01-18T07:30:05.343Z,959.19
2018-01-18T07:31:05.180Z,959.16
2018-01-18T07:32:05.772Z,959.08
2018-01-18T07:33:10.244Z,959.08
2018-01-18T07:34:05.244Z,958.97
2018-01-18T07:35:05.602Z,958.92
2018-01-18T07:36:05.174Z,958.94
2018-01-18T07:37:10.647Z,958.91
2018-01-18T07:38:05.442Z,958.83
2018-01-18T07:39:05.469Z,958.88
2018-01-18T07:40:05.350Z,958.74
2018-01-18T07:41:05.757Z,958.72
2018-01-18T07:42:05.592Z,958.69
2018-01-18T07:43:05.721Z,958.66
2018-01-18T07:44:05.812Z,958.58
2018-01-18T07:45:05.736Z,958.38
2018-01-18T07:46:05.305Z,958.30
2018-01-18T07:47:05.330Z,958.32
2018-01-18T07:48:05.289Z,958.44
2018-01-18T07:49:05.100Z,958.21
2018-01-18T07:50:05.096Z,958.21
2018-01-18T07:51:05.358Z,958.30
2018-01-18T07:52:05.313Z,958.24
2018-01-18T07:53:05.289Z,958.21
2018-01-18T07:54:05.143Z,958.16
2018-01-18T07:55:05.895Z,958.04
2018-01-18T07:56:05.926Z,958.21
2018-01-18T07:57:05.682Z,958.13
2018-01-18T07:58:05.416Z,958.18
2018-01-18T07:59:05.949Z,958.10
2018-01-18T08:00:05.544Z,957.76
2018-01-18T08:01:05.401Z,957.60
2018-01-18T08:02:05.864Z,957.47
2018-01-18T08:03:05.569Z,957.55
2018-01-18T08:04:05.779Z,957.60
2018-01-18T08:05:05.253Z,957.43
2018-01-18T08:06:05.327Z,957.27
2018-01-18T08:07:05.380Z,957.15
2018-01-18T08:08:05.929Z,957.10
2018-01-18T08:09:05.301Z,956.94
2018-01-18T08:10:05.090Z,956.94
2018-01-18T08:11:05.382Z,956.96
2018-01-18T08:12:05.059Z,956.90
2018-01-18T08:13:05.812Z,956.93
2018-01-18T08:14:05.704Z,956.96
2018-01-18T08:15:05.943Z,956.96
2018-01-18T08:16:05.838Z,956.62
2018-01-18T08:17:06.148Z,956.56
2018-01-18T08:18:05.139Z,956.48
2018-01-18T08:19:05.340Z,956.25
2018-01-18T08:20:05.026Z,956.33
2018-01-18T08:21:05.052Z,956.50
2018-01-18T08:22:05.905Z,956.36
2018-01-18T08:23:05.370Z,956.61
2018-01-18T08:24:05.670Z,956.49
2018-01-18T08:25:05.477Z,956.30
2018-01-18T08:26:05.715Z,956.13
2018-01-18T08:27:05.114Z,956.26
2018-01-18T08:28:06.054Z,956.09
2018-01-18T08:29:05.334Z,956.26
2018-01-18T08:30:05.554Z,956.23
2018-01-18T08:31:05.592Z,956.20
2018-01-18T08:32:05.067Z,956.22
2018-01-18T08:33:05.072Z,956.36
2018-01-18T08:34:05.503Z,956.19
2018-01-18T08:35:05.281Z,956.25
2018-01-18T08:36:05.140Z,956.03
2018-01-18T08:37:05.206Z,956.10
2018-01-18T08:38:05.432Z,955.97
2018-01-18T08:39:05.511Z,956.32
2018-01-18T08:40:04.969Z,956.15
2018-01-18T08:41:05.021Z,956.05
2018-01-18T08:42:04.905Z,956.12
2018-01-18T08:43:05.010Z,955.96
2018-01-18T08:44:05.064Z,956.02
2018-01-18T08:45:05.900Z,955.70
2018-01-18T08:46:05.222Z,955.84
2018-01-18T08:47:05.347Z,955.96
2018-01-18T08:48:05.651Z,955.73
2018-01-18T08:49:05.337Z,955.64
2018-01-18T08:50:05.724Z,955.87
2018-01-18T08:51:05.941Z,955.84
2018-01-18T08:52:05.883Z,956.10
2018-01-18T08:53:05.583Z,955.97
2018-01-18T08:54:05.264Z,956.13
2018-01-18T08:55:05.309Z,956.16
2018-01-18T08:56:05.613Z,956.07
2018-01-18T08:57:05.827Z,955.82
2018-01-18T08:58:10.487Z,955.96
2018-01-18T08:59:05.301Z,955.82
2018-01-18T09:00:05.302Z,955.91
2018-01-18T09:01:05.403Z,955.79
2018-01-18T09:02:06.026Z,955.62
2018-01-18T09:03:05.175Z,955.42
2018-01-18T09:04:05.693Z,955.40
2018-01-18T09:05:05.636Z,955.42
2018-01-18T09:06:05.508Z,955.20
2018-01-18T09:07:04.972Z,955.39
2018-01-18T09:08:05.710Z,955.47
2018-01-18T09:09:05.845Z,955.58
2018-01-18T09:10:05.800Z,955.61
2018-01-18T09:11:05.187Z,955.44
2018-01-18T09:12:05.368Z,955.19
2018-01-18T09:13:05.313Z,955.29
2018-01-18T09:14:05.579Z,955.54
2018-01-18T09:15:05.339Z,955.77
2018-01-18T09:16:05.582Z,955.37
2018-01-18T09:17:05.547Z,954.89
2018-01-18T09:18:05.774Z,954.78
2018-01-18T09:19:05.340Z,954.98
2018-01-18T09:20:05.320Z,954.86
2018-01-18T09:21:05.626Z,955.09
2018-01-18T09:22:05.456Z,955.00
2018-01-18T09:23:05.086Z,955.20
2018-01-18T09:24:05.955Z,955.20
2018-01-18T09:25:05.453Z,955.12
2018-01-18T09:26:04.939Z,955.14
2018-01-18T09:27:05.640Z,955.26
2018-01-18T09:28:05.791Z,954.70
2018-01-18T09:29:05.258Z,955.06
2018-01-18T09:30:05.442Z,955.12
2018-01-18T09:31:05.460Z,954.64
2018-01-18T09:32:06.068Z,954.64
2018-01-18T09:33:05.400Z,954.70
2018-01-18T09:34:05.768Z,955.26
2018-01-18T09:35:10.516Z,955.14
2018-01-18T09:36:05.456Z,955.03
2018-01-18T09:37:05.448Z,955.28
2018-01-18T09:38:05.947Z,955.11
2018-01-18T09:39:05.826Z,955.06
2018-01-18T09:40:05.652Z,955.11
2018-01-18T09:41:05.269Z,954.72
2018-01-18T09:42:05.320Z,954.74
2018-01-18T09:43:05.520Z,954.80
2018-01-18T09:44:05.580Z,954.61
2018-01-18T09:45:05.108Z,954.80
2018-01-18T09:46:05.770Z,954.83
2018-01-18T09:47:05.217Z,954.77
2018-01-18T09:48:05.311Z,954.82
2018-01-18T09:49:05.047Z,954.91
2018-01-18T09:50:05.180Z,954.94
2018-01-18T09:51:05.490Z,954.68
2018-01-18T09:52:05.511Z,954.74
2018-01-18T09:53:05.938Z,954.49
2018-01-18T09:54:05.725Z,954.58
2018-01-18T09:55:04.923Z,954.65
2018-01-18T09:56:05.804Z,954.52
2018-01-18T09:57:05.737Z,954.63
2018-01-18T09:58:06.000Z,954.52
2018-01-18T09:59:06.007Z,954.41
2018-01-18T10:00:05.879Z,954.58
2018-01-18T10:01:05.462Z,954.16
2018-01-18T10:02:05.688Z,954.05
2018-01-18T10:03:05.568Z,954.24
2018-01-18T10:04:05.899Z,954.40
2018-01-18T10:05:05.837Z,954.21
2018-01-18T10:06:05.611Z,954.32
2018-01-18T10:07:05.328Z,954.26
2018-01-18T10:08:05.366Z,954.12
2018-01-18T10:09:05.255Z,954.01
2018-01-18T10:10:05.039Z,954.09
2018-01-18T10:11:04.923Z,953.84
2018-01-18T10:12:05.674Z,953.70
2018-01-18T10:13:05.793Z,953.78
2018-01-18T10:14:05.756Z,953.92
2018-01-18T10:15:05.233Z,953.97
2018-01-18T10:16:05.851Z,953.74
2018-01-18T10:17:05.684Z,953.71
2018-01-18T10:18:05.743Z,953.80
2018-01-18T10:19:05.320Z,953.88
2018-01-18T10:20:05.583Z,954.07
2018-01-18T10:21:05.889Z,953.51
2018-01-18T10:22:05.647Z,953.62
2018-01-18T10:23:05.813Z,953.56
2018-01-18T10:24:05.892Z,953.71
2018-01-18T10:25:06.086Z,953.59
2018-01-18T10:26:05.692Z,953.59
2018-01-18T10:27:05.229Z,953.67
2018-01-18T10:28:05.359Z,953.70
2018-01-18T10:29:05.768Z,953.47
2018-01-18T10:30:05.796Z,953.53
2018-01-18T10:31:04.958Z,953.58
2018-01-18T10:32:05.797Z,953.55
2018-01-18T10:33:05.241Z,953.44
2018-01-18T10:34:04.989Z,953.52
2018-01-18T10:35:05.595Z,953.63
2018-01-18T10:36:05.327Z,953.57
2018-01-18T10:37:06.088Z,953.48
2018-01-18T10:38:05.509Z,953.28
2018-01-18T10:39:05.692Z,953.34
2018-01-18T10:40:05.467Z,953.28
2018-01-18T10:41:05.080Z,953.47
2018-01-18T10:42:05.842Z,953.22
2018-01-18T10:43:05.834Z,953.25
2018-01-18T10:44:05.355Z,953.33
2018-01-18T10:45:05.319Z,953.11
2018-01-18T10:46:05.254Z,953.11
2018-01-18T10:47:05.798Z,952.97
2018-01-18T10:48:05.646Z,953.22
2018-01-18T10:49:06.010Z,953.11
2018-01-18T10:50:05.822Z,952.99
2018-01-18T10:51:05.186Z,952.99
2018-01-18T10:52:05.104Z,952.92
2018-01-18T10:53:06.072Z,952.86
2018-01-18T10:54:05.363Z,952.86
2018-01-18T10:55:05.819Z,952.88
2018-01-18T10:56:05.395Z,952.96
2018-01-18T10:57:05.667Z,952.86
2018-01-18T10:58:05.600Z,952.91
2018-01-18T10:59:05.122Z,952.77
2018-01-18T11:00:05.088Z,952.71
2018-01-18T11:01:05.072Z,952.71
2018-01-18T11:02:05.803Z,952.55
2018-01-18T11:03:06.564Z,952.65
2018-01-18T11:04:05.544Z,952.68
2018-01-18T11:05:05.671Z,952.62
2018-01-18T11:06:05.137Z,952.53
2018-01-18T11:07:05.778Z,952.50
2018-01-18T11:08:05.236Z,952.47
2018-01-18T11:09:05.155Z,952.50
2018-01-18T11:10:05.975Z,952.41
2018-01-18T11:11:05.283Z,952.47
2018-01-18T11:12:05.313Z,952.33
2018-01-18T11:13:05.676Z,952.30
2018-01-18T11:14:05.414Z,952.10
2018-01-18T11:15:05.395Z,952.33
2018-01-18T11:16:05.513Z,952.27
2018-01-18T11:17:10.596Z,951.89
2018-01-18T11:18:05.699Z,952.19
2018-01-18T11:19:08.243Z,951.94
2018-01-18T11:20:05.114Z,951.91
2018-01-18T11:21:05.332Z,951.80
2018-01-18T11:22:05.673Z,951.94
2018-01-18T11:23:05.299Z,951.85
2018-01-18T11:24:05.707Z,951.96
2018-01-18T11:25:05.772Z,952.04
2018-01-18T11:26:05.706Z,952.04
2018-01-18T11:27:05.101Z,951.76
2018-01-18T11:28:05.809Z,952.06
2018-01-18T11:29:06.013Z,951.76
2018-01-18T11:30:06.121Z,951.81
2018-01-18T11:31:05.143Z,951.84
2018-01-18T11:32:05.771Z,951.87
2018-01-18T11:33:05.811Z,951.81
2018-01-18T11:34:05.621Z,951.86
2018-01-18T11:35:05.583Z,951.75
2018-01-18T11:36:05.865Z,951.83
2018-01-18T11:37:05.774Z,951.83
2018-01-18T11:38:06.051Z,951.94
2018-01-18T11:39:05.443Z,951.71
2018-01-18T11:40:05.263Z,951.60
2018-01-18T11:41:05.766Z,951.57
2018-01-18T11:42:05.336Z,951.51
2018-01-18T11:43:05.442Z,951.53
2018-01-18T11:44:05.431Z,951.47
2018-01-18T11:45:05.200Z,951.47
2018-01-18T11:46:05.984Z,951.32
2018-01-18T11:47:06.037Z,951.35
2018-01-18T11:48:05.444Z,951.42
2018-01-18T11:49:05.452Z,951.26
2018-01-18T11:50:05.798Z,951.39
2018-01-18T11:51:05.330Z,951.23
2018-01-18T11:52:05.435Z,951.25
2018-01-18T11:53:05.566Z,951.22
2018-01-18T11:54:05.699Z,951.19
2018-01-18T11:55:05.423Z,951.13
2018-01-18T11:56:05.683Z,951.07
2018-01-18T11:57:06.089Z,951.09
2018-01-18T11:58:05.602Z,951.04
2018-01-18T11:59:05.627Z,950.81
2018-01-18T12:00:05.407Z,951.00
2018-01-18T12:01:05.397Z,951.20
2018-01-18T12:02:05.514Z,951.33
2018-01-18T12:03:05.118Z,951.20
2018-01-18T12:04:05.079Z,951.17
2018-01-18T12:05:05.927Z,951.05
2018-01-18T12:06:10.938Z,951.11
2018-01-18T12:07:05.877Z,950.91
2018-01-18T12:08:05.871Z,950.60
2018-01-18T12:09:05.287Z,951.05
2018-01-18T12:10:05.882Z,950.88
2018-01-18T12:11:05.181Z,950.90
2018-01-18T12:12:05.711Z,950.79
2018-01-18T12:13:05.239Z,950.65
2018-01-18T12:14:04.967Z,950.70
2018-01-18T12:15:05.605Z,950.73
2018-01-18T12:16:05.917Z,950.73
2018-01-18T12:17:05.575Z,950.64
2018-01-18T12:18:10.295Z,950.55
2018-01-18T12:19:05.460Z,950.70
2018-01-18T12:20:05.191Z,950.50
2018-01-18T12:21:05.734Z,950.66
2018-01-18T12:22:05.948Z,950.49
2018-01-18T12:23:05.679Z,950.55
2018-01-18T12:24:05.409Z,950.49
2018-01-18T12:25:10.012Z,950.32
2018-01-18T12:26:06.000Z,950.63
2018-01-18T12:27:05.767Z,950.74
2018-01-18T12:28:05.499Z,950.51